Flight Track Log - Related Links

Times and Time Zones

All times are in EDT time to prevent confusion due to time zone crossing. See the UAL4530 flight status page for this flight to view local times or setup timezone preferences in your user account.

Time Position Orientation Groundspeed Altitude Reporting Facility
EDT Latitude Longitude Course Direction KTS MPH feet Rate Location/Type
Tue 12:58:06 PM 40.6500 -74.2000 276° West 183 211 2,400  Level New York TRACON
Tue 12:59:06 PM 40.6500 -74.2833 270° West 216 249 5,100 2,750 Climbing New York TRACON
Tue 01:00:06 PM 40.6667 -74.3500 288° West 213 245 7,900 2,650 Climbing New York TRACON
Tue 01:01:00 PM 40.7461 -74.6571 277° West  Level FlightAware Approximate
Tue 01:01:06 PM 40.6833 -74.4333 285° West 210 242 10,400  Level New York TRACON
Tue 01:02:00 PM 40.7565 -74.7845 276° West  Level FlightAware Approximate
Tue 01:02:06 PM 40.7000 -74.5000 288° West 226 260 12,700  Level New York TRACON
Tue 01:03:00 PM 40.7663 -74.9121 276° West  Level FlightAware Approximate
Tue 01:03:58 PM 40.7828 -74.5997 318° Northwest 240 276 15,200  Level New York Center
Tue 01:04:58 PM 40.7875 -74.7122 273° West 294 338 16,100 942 Climbing New York Center
Tue 01:05:59 PM 40.7919 -74.8303 273° West 312 359 17,100 1,050 Climbing New York Center
Tue 01:06:58 PM 40.7964 -74.9403 273° West 337 388 18,200 1,311 Climbing New York Center
Tue 01:07:58 PM 40.8019 -75.0722 273° West 337 388 19,700 1,500 Climbing New York Center
Tue 01:08:58 PM 40.7953 -75.2006 266° West 337 388 21,200 1,450 Climbing New York Center
Tue 01:09:58 PM 40.7764 -75.3089 257° West 342 394 22,600 1,400 Climbing New York Center
Tue 01:10:58 PM 40.7467 -75.4303 252° West 347 399 24,000 1,488 Climbing New York Center
Tue 01:11:59 PM 40.7044 -75.5506 245° Southwest 347 399 25,600 1,488 Climbing New York Center
Tue 01:12:59 PM 40.6625 -75.6600 243° Southwest 347 399 27,000 1,438 Climbing New York Center
Tue 01:14:00 PM 40.6222 -75.7719 245° Southwest 342 394 28,500 1,438 Climbing New York Center
Tue 01:15:00 PM 40.5825 -75.8756 243° Southwest 337 388 29,900 1,412 Climbing New York Center
Tue 01:15:59 PM 40.5408 -75.9708 240° Southwest 331 381 31,300 1,160 Climbing New York Center
Tue 01:16:59 PM 40.5050 -76.0719 245° Southwest 326 375 32,200 793 Climbing New York Center
Tue 01:18:00 PM 40.4625 -76.1806 243° Southwest 326 375 32,900 756 Climbing New York Center
Tue 01:18:58 PM 40.4222 -76.2892 244° Southwest 326 375 33,700 864 Climbing New York Center
Tue 01:19:58 PM 40.3794 -76.3975 243° Southwest 337 388 34,600 942 Climbing New York Center
Tue 01:20:59 PM 40.3389 -76.5058 244° Southwest 337 388 35,600 689 Climbing New York Center
Tue 01:22:00 PM 40.2964 -76.6083 241° Southwest 337 388 36,000 198 Climbing New York Center
Tue 01:23:00 PM 40.2533 -76.7164 242° Southwest 337 388 36,000  Level New York Center
Tue 01:24:01 PM 40.2081 -76.8292 242° Southwest 343 395 36,000  Level New York Center
Tue 01:24:58 PM 40.1536 -76.9578 241° Southwest 348 400 36,000  Level New York Center
Tue 01:25:59 PM 40.1053 -77.0811 243° Southwest 368 423 36,000  Level New York Center
Tue 01:26:59 PM 40.0547 -77.2067 242° Southwest 386 444 36,000  Level New York Center
Tue 01:28:00 PM 40.0039 -77.3322 242° Southwest 393 452 36,000  Level New York Center
Tue 01:30:27 PM 39.9589 -77.6658 260° West 386 444 36,000  Level Cleveland Center
Tue 01:31:27 PM 39.9647 -77.8119 273° West 393 452 36,000  Level Cleveland Center
Tue 01:32:27 PM 39.9681 -77.9581 272° West 405 466 36,000  Level Cleveland Center
Tue 01:33:27 PM 39.9733 -78.1014 273° West 405 466 36,000  Level Cleveland Center
Tue 01:34:27 PM 39.9786 -78.2475 273° West 405 466 36,000  Level Cleveland Center
Tue 01:35:27 PM 39.9794 -78.3911 270° West 400 460 36,000  Level Cleveland Center
Tue 01:36:27 PM 39.9844 -78.5508 272° West 406 467 36,000  Level Cleveland Center
Tue 01:37:27 PM 39.9892 -78.6997 272° West 406 467 36,000  Level Cleveland Center
Tue 01:38:27 PM 39.9914 -78.8433 271° West 401 461 36,000  Level Cleveland Center
Tue 01:39:27 PM 39.9997 -78.9894 274° West 401 461 36,000  Level Cleveland Center
Tue 01:40:27 PM 40.0017 -79.1250 271° West 396 456 36,000  Level Cleveland Center
Tue 01:41:27 PM 40.0031 -79.2578 271° West 382 440 36,000  Level Cleveland Center
Tue 01:42:27 PM 40.0067 -79.3850 272° West 370 426 36,000  Level Cleveland Center
Tue 01:43:27 PM 40.0081 -79.5153 271° West 365 420 36,000  Level Cleveland Center
Tue 01:44:27 PM 40.0092 -79.6506 271° West 365 420 36,000  Level Cleveland Center
Tue 01:45:27 PM 40.0103 -79.7889 271° West 365 420 36,000  Level Cleveland Center
Tue 01:46:27 PM 40.0111 -79.9272 270° West 377 434 36,000  Level Cleveland Center
Tue 01:47:27 PM 40.0139 -80.0408 272° West 387 445 36,000  Level Cleveland Center
Tue 01:48:27 PM 40.0144 -80.1956 270° West 387 445 36,000 -650 Level Cleveland Center
Tue 01:49:27 PM 40.0169 -80.3308 271° West 382 440 34,700 -1,400 Descending Cleveland Center
Tue 01:50:27 PM 40.0172 -80.4664 270° West 382 440 33,200 -1,350 Descending Cleveland Center
Tue 01:51:27 PM 40.0192 -80.6128 271° West 388 447 32,000 -600 Descending Cleveland Center
Tue 01:52:27 PM 40.0192 -80.7592 270° West 405 466 32,000  Level Cleveland Center
Tue 01:53:27 PM 40.0186 -80.9083 270° West 405 466 32,000  Level Cleveland Center
Tue 01:55:00 PM 40.0122 -81.1536 268° West 411 473 32,000  Level Indianapolis Center
Tue 01:56:02 PM 40.0092 -81.3039 269° West 411 473 32,000  Level Indianapolis Center
Tue 01:57:04 PM 40.0058 -81.4531 268° West 409 471 32,000  Level Indianapolis Center
Tue 01:58:05 PM 40.0036 -81.6036 269° West 411 473 32,000  Level Indianapolis Center
Tue 01:59:07 PM 40.0006 -81.7514 269° West 405 466 32,000  Level Indianapolis Center
Tue 02:00:08 PM 39.9972 -81.8964 268° West 409 471 32,000  Level Indianapolis Center
Tue 02:01:10 PM 39.9936 -82.0458 268° West 410 472 32,000  Level Indianapolis Center
Tue 02:02:12 PM 39.9897 -82.2181 268° West 405 466 32,000  Level Indianapolis Center
Tue 02:03:13 PM 39.9853 -82.3656 268° West 405 466 32,000  Level Indianapolis Center
Tue 02:04:15 PM 39.9822 -82.5133 269° West 405 466 32,000  Level Indianapolis Center
Tue 02:05:17 PM 39.9772 -82.6597 267° West 403 464 32,000  Level Indianapolis Center
Tue 02:06:18 PM 39.9728 -82.8056 268° West 401 461 32,000  Level Indianapolis Center
Tue 02:07:20 PM 39.9692 -82.9506 268° West 399 459 32,000  Level Indianapolis Center
Tue 02:08:22 PM 39.9647 -83.0961 268° West 399 459 32,000  Level Indianapolis Center
Tue 02:09:23 PM 39.9614 -83.2389 268° West 394 453 32,000  Level Indianapolis Center
Tue 02:10:25 PM 39.9575 -83.3817 268° West 395 455 32,000  Level Indianapolis Center
Tue 02:11:26 PM 39.9514 -83.5472 267° West 398 458 32,000  Level Indianapolis Center
Tue 02:12:28 PM 39.9450 -83.6881 267° West 393 452 32,000  Level Indianapolis Center
Tue 02:13:29 PM 39.9403 -83.8328 268° West 396 456 32,000  Level Indianapolis Center
Tue 02:14:31 PM 39.9344 -83.9769 267° West 397 457 32,000  Level Indianapolis Center
Tue 02:15:33 PM 39.9286 -84.1219 267° West 398 458 32,000  Level Indianapolis Center
Tue 02:16:34 PM 39.9228 -84.2675 267° West 399 459 32,000  Level Indianapolis Center
Tue 02:17:36 PM 39.9161 -84.4131 267° West 398 458 32,000  Level Indianapolis Center
Tue 02:18:38 PM 39.9081 -84.5842 267° West 401 461 32,000  Level Indianapolis Center
Tue 02:19:39 PM 39.9008 -84.7317 266° West 404 465 32,000  Level Indianapolis Center
Tue 02:20:41 PM 39.8950 -84.8764 267° West 398 458 32,000  Level Indianapolis Center
Tue 02:21:43 PM 39.8881 -85.0233 267° West 402 463 32,000  Level Indianapolis Center
Tue 02:22:44 PM 39.8794 -85.1697 266° West 402 463 32,000  Level Indianapolis Center
Tue 02:23:46 PM 39.8717 -85.3139 266° West 397 457 32,000  Level Indianapolis Center
Tue 02:24:48 PM 39.8594 -85.4581 264° West 399 459 32,000  Level Indianapolis Center
Tue 02:25:49 PM 39.8183 -85.5936 248° West 400 460 32,000  Level Indianapolis Center
Tue 02:26:51 PM 39.7794 -85.7297 250° West 399 459 32,000 145 Level Indianapolis Center
Tue 02:27:53 PM 39.7433 -85.8906 254° West 396 456 32,300 532 Climbing Indianapolis Center
Tue 02:28:55 PM 39.7144 -86.0264 255° West 396 456 33,100 829 Climbing Indianapolis Center
Tue 02:29:56 PM 39.6842 -86.1625 254° West 393 452 34,000 780 Climbing Indianapolis Center
Tue 02:30:58 PM 39.6553 -86.2969 254° West 389 448 34,700 677 Climbing Indianapolis Center
Tue 02:32:00 PM 39.6261 -86.4294 254° West 384 442 35,400 634 Climbing Indianapolis Center
Tue 02:33:01 PM 39.6150 -86.5611 264° West 371 427 36,000 293 Climbing Indianapolis Center
Tue 02:34:03 PM 39.6258 -86.6981 276° West 379 436 36,000  Level Indianapolis Center
Tue 02:35:05 PM 39.6372 -86.8358 276° West 383 441 36,000  Level Indianapolis Center
Tue 02:36:06 PM 39.6522 -87.0044 277° West 389 448 36,000  Level Indianapolis Center
Tue 02:37:08 PM 39.6633 -87.1461 276° West 393 452 36,000  Level Indianapolis Center
Tue 02:38:10 PM 39.6750 -87.2872 276° West 394 453 36,000  Level Indianapolis Center
Tue 02:39:12 PM 39.6861 -87.4281 276° West 393 452 36,000  Level Indianapolis Center
Tue 02:40:13 PM 39.6956 -87.5597 275° West 375 432 36,000  Level Indianapolis Center
Tue 02:41:15 PM 39.7061 -87.6886 276° West 364 419 36,000  Level Indianapolis Center
Tue 02:42:17 PM 39.7169 -87.8200 276° West 363 418 36,000  Level Indianapolis Center
Tue 02:43:19 PM 39.7281 -87.9808 275° West 367 422 36,000  Level Indianapolis Center
Tue 02:44:21 PM 39.7383 -88.1150 276° West 369 425 36,000  Level Indianapolis Center
Tue 02:45:22 PM 39.7478 -88.2492 275° West 371 427 36,000  Level Indianapolis Center
Tue 02:46:24 PM 39.7575 -88.3844 275° West 373 429 36,000  Level Indianapolis Center
Tue 02:47:26 PM 39.7669 -88.5197 275° West 374 430 36,000  Level Indianapolis Center
Tue 02:48:28 PM 39.7767 -88.6553 275° West 375 432 36,000  Level Indianapolis Center
Tue 02:49:30 PM 39.7867 -88.7922 275° West 377 434 36,000  Level Indianapolis Center
Tue 02:50:32 PM 39.7944 -88.9297 274° West 378 435 36,000  Level Indianapolis Center
Tue 02:51:33 PM 39.8061 -89.0961 275° West 382 440 36,000  Level Indianapolis Center
Tue 02:52:35 PM 39.8153 -89.2344 275° West 383 441 36,000  Level Indianapolis Center
Tue 02:53:37 PM 39.8242 -89.3756 275° West 386 444 36,000  Level Indianapolis Center
Tue 02:54:41 PM 39.8294 -89.5169 273° West 387 445 36,000  Level Kansas City Center
Tue 02:55:43 PM 39.8378 -89.6581 274° West 389 448 36,000  Level Kansas City Center
Tue 02:56:46 PM 39.8406 -89.8008 271° West 392 451 36,000  Level Kansas City Center
Tue 02:57:46 PM 39.8419 -89.9428 271° West 392 451 36,000  Level Kansas City Center
Tue 02:58:48 PM 39.8428 -90.1147 270° West 393 452 36,000  Level Kansas City Center
Tue 02:59:49 PM 39.8442 -90.2592 271° West 395 455 36,000  Level Kansas City Center
Tue 03:00:52 PM 39.8464 -90.4053 271° West 400 460 36,000  Level Kansas City Center
Tue 03:01:54 PM 39.8464 -90.5492 270° West 398 458 36,000  Level Kansas City Center
Tue 03:02:54 PM 39.8467 -90.6922 270° West 397 457 36,000  Level Kansas City Center
Tue 03:03:58 PM 39.8469 -90.8367 270° West 397 457 36,000  Level Kansas City Center
Tue 03:04:59 PM 39.8483 -90.9992 271° West 397 457 36,000  Level Kansas City Center
Tue 03:06:00 PM 39.8475 -91.1403 270° West 394 453 36,000 -293 Level Kansas City Center
Tue 03:07:02 PM 39.8481 -91.2814 270° West 393 452 35,400 -780 Descending Kansas City Center
Tue 03:08:03 PM 39.8369 -91.4236 264° West 394 453 34,400 -672 Descending Kansas City Center
Tue 03:09:07 PM 39.8272 -91.5622 265° West 392 451 34,000 -192 Descending Kansas City Center
Tue 03:10:08 PM 39.8167 -91.7014 264° West 389 448 34,000  Level Kansas City Center
Tue 03:11:08 PM 39.8025 -91.8714 264° West 393 452 34,000  Level Kansas City Center
Tue 03:12:12 PM 39.7931 -92.0086 265° West 387 445 34,000 -336 Level Kansas City Center
Tue 03:13:13 PM 39.7825 -92.1492 264° West 388 447 33,300 -878 Descending Kansas City Center
Tue 03:14:15 PM 39.7703 -92.2919 264° West 394 453 32,200 -1,122 Descending Kansas City Center
Tue 03:15:16 PM 39.7594 -92.4281 264° West 388 447 31,000 -1,152 Descending Kansas City Center
Tue 03:16:20 PM 39.7472 -92.5653 263° West 382 440 29,800 -1,104 Descending Kansas City Center
Tue 03:17:21 PM 39.7356 -92.7144 264° West 405 466 28,700 -1,258 Descending Kansas City Center
Tue 03:18:24 PM 39.7194 -92.8928 263° West 413 475 27,200 -1,258 Descending Kansas City Center
Tue 03:19:25 PM 39.7064 -93.0389 263° West 410 472 26,100 -1,131 Descending Kansas City Center
Tue 03:20:26 PM 39.6939 -93.1850 264° West 409 471 24,900 -1,180 Descending Kansas City Center
Tue 03:21:27 PM 39.6806 -93.3242 263° West 395 455 23,700 -1,152 Descending Kansas City Center
Tue 03:22:31 PM 39.6686 -93.4589 263° West 385 443 22,500 -1,152 Descending Kansas City Center
Tue 03:23:32 PM 39.6561 -93.5961 263° West 384 442 21,300 -1,296 Descending Kansas City Center
Tue 03:24:36 PM 39.6408 -93.7636 263° West 381 438 19,800 -1,248 Descending Kansas City Center
Tue 03:25:37 PM 39.6247 -93.8908 261° West 376 433 18,700 -1,140 Descending Kansas City Center
Tue 03:26:37 PM 39.5694 -93.9978 236° Southwest 370 426 17,500 -1,537 Descending Kansas City Center
Tue 03:27:38 PM 39.5100 -94.1139 236° Southwest 346 398 15,600 -1,824 Descending Kansas City Center
Tue 03:28:42 PM 39.4614 -94.2094 237° Southwest 333 383 13,700 -1,680 Descending Kansas City Center
Tue 03:29:43 PM 39.4042 -94.3233 237° Southwest 339 390 12,100 -836 Descending Kansas City Center
Tue 03:30:44 PM 39.3547 -94.4192 236° Southwest 334 384 12,000 -192 Descending Kansas City Center
Tue 03:31:48 PM 39.3006 -94.5253 237° Southwest 317 365 11,700 -528 Descending Kansas City Center
Tue 03:32:49 PM 39.2631 -94.5961 236° Southwest 252 290 10,900 -1,306 Descending Kansas City Center
Tue 03:33:52 PM 39.1892 -94.6131 190° South 241 277 9,000 -1,839 Descending Kansas City Center
Tue 03:34:53 PM 39.1239 -94.6300 191° South 248 285 7,100 -1,918 Descending Kansas City Center
Tue 03:35:54 PM 39.1092 -94.7069 256° West 263 303 5,100 -1,623 Descending Kansas City Center
Tue 03:36:55 PM 39.1800 -94.7406 340° North 247 284 3,800 -1,306 Descending Kansas City Center
Tue 03:37:58 PM 39.2331 -94.7239 14° North 204 235 2,400 -1,258 Descending Kansas City Center
Tue 03:38:59 PM 39.2781 -94.7100 13° North 146 168 1,200 -1,180 Descending Kansas City Center

Login

Don't have an account? Register now (free) for customized features, flight alerts, and more!